Time;durP1;ratioP1;P1;durP2;ratioP2;P2;SDS_P1;SDS_P2;PMS_P1;PMS_P2;Temp;Humidity;BMP_temperature;BMP_pressure;BME280_temperature;BME280_humidity;BME280_pressure;Samples;Min_cycle;Max_cycle;Signal;HPM_P1;HPM_P2
2022/08/26 00:01:29;;;;;;;3.90;3.50;;;24.90;55.40;;;;;;5037020;28;20219;-77
2022/08/26 00:03:58;;;;;;;4.00;3.70;;;24.90;55.50;;;;;;5036951;28;20202;-77
2022/08/26 00:06:25;;;;;;;4.20;3.80;;;24.90;55.50;;;;;;5036946;28;20218;-77
2022/08/26 00:08:53;;;;;;;3.97;3.60;;;24.90;55.50;;;;;;5037167;28;20283;-77
2022/08/26 00:11:20;;;;;;;4.18;3.83;;;24.90;55.50;;;;;;5036820;28;20273;-77
2022/08/26 00:13:47;;;;;;;4.63;3.38;;;24.90;55.50;;;;;;5036651;28;20257;-77
2022/08/26 00:16:14;;;;;;;4.22;3.83;;;24.90;55.50;;;;;;5036322;28;20201;-77
2022/08/26 00:18:40;;;;;;;4.30;3.90;;;24.90;55.50;;;;;;5054070;28;20192;-77
2022/08/26 00:21:09;;;;;;;3.80;3.50;;;24.90;55.60;;;;;;5036190;28;20221;-77
2022/08/26 00:23:37;;;;;;;4.00;3.70;;;24.90;55.60;;;;;;5036358;28;20223;-77
2022/08/26 00:26:04;;;;;;;4.07;3.78;;;24.90;55.60;;;;;;5036015;28;20199;-77
2022/08/26 00:28:32;;;;;;;3.55;3.25;;;24.90;55.50;;;;;;5036036;28;20257;-77
2022/08/26 00:30:59;;;;;;;3.80;3.50;;;24.90;55.60;;;;;;5035982;28;20226;-77
2022/08/26 00:33:26;;;;;;;3.70;3.40;;;24.80;55.50;;;;;;5035573;28;20199;-77
2022/08/26 00:35:53;;;;;;;3.72;3.42;;;24.80;55.50;;;;;;5035704;28;20199;-77
2022/08/26 00:38:22;;;;;;;3.83;3.50;;;24.90;55.50;;;;;;5035647;28;20191;-77
2022/08/26 00:40:50;;;;;;;3.90;3.60;;;24.80;55.50;;;;;;5035501;28;20246;-77
2022/08/26 00:43:17;;;;;;;3.75;3.45;;;24.80;55.50;;;;;;5035431;28;20200;-77
2022/08/26 00:45:46;;;;;;;3.90;3.60;;;24.80;55.50;;;;;;5019306;28;20637;-77
2022/08/26 00:48:12;;;;;;;3.83;3.53;;;24.80;55.60;;;;;;5036262;28;20219;-77
2022/08/26 00:50:42;;;;;;;3.70;3.40;;;24.80;55.60;;;;;;5039418;28;20212;-77
2022/08/26 00:53:20;;;;;;;4.00;3.67;;;24.80;55.60;;;;;;5039505;28;20203;-77
2022/08/26 00:55:50;;;;;;;3.50;3.20;;;24.80;55.60;;;;;;5039883;28;20652;-77
2022/08/26 00:58:17;;;;;;;3.75;3.45;;;24.80;55.60;;;;;;5039497;28;20226;-77
2022/08/26 01:00:44;;;;;;;3.55;3.28;;;24.80;55.70;;;;;;5039343;28;20215;-77
2022/08/26 01:03:11;;;;;;;3.70;3.40;;;24.80;55.70;;;;;;5039581;28;20207;-77
2022/08/26 01:05:39;;;;;;;4.07;3.78;;;24.70;55.60;;;;;;5039649;28;20199;-77
2022/08/26 01:08:05;;;;;;;3.67;3.38;;;24.70;55.60;;;;;;5039179;28;20219;-77
2022/08/26 01:10:33;;;;;;;3.97;3.58;;;24.80;55.70;;;;;;5056862;28;20315;-77
2022/08/26 01:13:03;;;;;;;3.78;3.47;;;24.70;55.60;;;;;;5039148;28;20221;-77
2022/08/26 01:15:32;;;;;;;3.80;3.50;;;24.70;55.60;;;;;;5040203;28;20553;-77
2022/08/26 01:17:59;;;;;;;3.70;3.40;;;24.70;55.70;;;;;;5057323;28;20196;-77
2022/08/26 01:20:29;;;;;;;3.80;3.50;;;24.70;55.70;;;;;;5039071;28;20716;-77
2022/08/26 01:22:57;;;;;;;3.50;3.20;;;24.70;55.70;;;;;;5038777;28;20203;-77
2022/08/26 01:25:25;;;;;;;3.90;3.60;;;24.70;55.70;;;;;;5040759;28;20229;-77
2022/08/26 01:27:52;;;;;;;3.60;3.30;;;24.70;55.70;;;;;;5041142;28;20260;-77
2022/08/26 01:30:20;;;;;;;3.47;3.22;;;24.70;55.70;;;;;;5039078;28;20219;-77
2022/08/26 01:32:48;;;;;;;3.25;3.05;;;24.70;55.70;;;;;;5038861;28;20717;-77
2022/08/26 01:35:15;;;;;;;3.80;3.50;;;24.70;55.70;;;;;;5022534;28;20230;-77
2022/08/26 01:37:42;;;;;;;4.00;3.60;;;24.70;55.80;;;;;;5056751;28;20198;-77
2022/08/26 01:40:13;;;;;;;3.33;3.13;;;24.70;55.80;;;;;;5038706;28;20215;-77
2022/08/26 01:42:41;;;;;;;3.88;3.58;;;24.70;55.80;;;;;;5056771;28;20210;-77
2022/08/26 01:45:10;;;;;;;4.22;3.83;;;24.70;55.80;;;;;;5039223;28;20206;-77
2022/08/26 01:47:38;;;;;;;3.78;3.38;;;24.70;55.80;;;;;;5038740;28;20293;-77
2022/08/26 01:50:08;;;;;;;3.70;3.35;;;24.60;55.80;;;;;;5039391;28;20238;-77
2022/08/26 01:52:35;;;;;;;3.67;3.38;;;24.60;55.70;;;;;;5038462;28;20226;-77
2022/08/26 01:55:02;;;;;;;3.55;3.25;;;24.60;55.70;;;;;;5038274;28;20298;-77
2022/08/26 01:57:31;;;;;;;3.65;3.35;;;24.60;55.80;;;;;;5038339;28;20578;-77
2022/08/26 01:59:59;;;;;;;4.07;3.78;;;24.60;55.80;;;;;;5037529;28;20580;-77
2022/08/26 02:02:26;;;;;;;3.90;3.60;;;24.60;55.80;;;;;;5038472;28;20203;-77
2022/08/26 02:04:54;;;;;;;3.60;3.30;;;24.60;55.80;;;;;;5038891;28;20704;-77
2022/08/26 02:07:21;;;;;;;3.80;3.50;;;24.60;55.90;;;;;;5038149;28;20227;-77
2022/08/26 02:09:48;;;;;;;3.53;3.28;;;24.60;55.80;;;;;;5038344;28;20249;-77
2022/08/26 02:12:16;;;;;;;4.00;3.70;;;24.60;55.80;;;;;;5038641;28;20297;-77
2022/08/26 02:14:48;;;;;;;3.88;3.58;;;24.60;55.90;;;;;;5038422;28;20195;-77
2022/08/26 02:17:16;;;;;;;4.10;3.70;;;24.60;55.90;;;;;;5056617;28;20533;-77
2022/08/26 02:19:48;;;;;;;3.58;3.38;;;24.60;55.90;;;;;;5037979;28;20199;-77
2022/08/26 02:22:20;;;;;;;3.97;3.67;;;24.60;55.90;;;;;;5038192;28;20219;-77
2022/08/26 02:24:49;;;;;;;4.00;3.60;;;24.60;55.90;;;;;;5038031;28;20290;-77
2022/08/26 02:27:16;;;;;;;3.80;3.50;;;24.60;55.90;;;;;;5037798;28;20215;-77
2022/08/26 02:29:45;;;;;;;3.80;3.50;;;24.50;55.80;;;;;;5037697;28;20204;-77
2022/08/26 02:32:12;;;;;;;3.92;3.65;;;24.50;55.80;;;;;;5037800;28;20196;-77
2022/08/26 02:34:39;;;;;;;4.28;3.88;;;24.50;55.90;;;;;;5038010;28;20199;-77
2022/08/26 02:37:07;;;;;;;4.15;3.75;;;24.50;55.90;;;;;;5021618;28;20245;-77
2022/08/26 02:39:35;;;;;;;4.05;3.65;;;24.50;56.00;;;;;;5037754;28;20210;-77
2022/08/26 02:42:02;;;;;;;4.07;3.78;;;24.50;55.90;;;;;;5037769;28;20303;-77
2022/08/26 02:44:29;;;;;;;3.97;3.67;;;24.50;55.90;;;;;;5037443;28;20604;-77
2022/08/26 02:46:58;;;;;;;4.07;3.78;;;24.50;56.00;;;;;;5021038;28;20571;-77
2022/08/26 02:49:25;;;;;;;3.92;3.63;;;24.50;55.90;;;;;;5037487;28;20579;-77
2022/08/26 02:51:52;;;;;;;4.07;3.78;;;24.50;55.90;;;;;;5037638;28;20211;-77
2022/08/26 02:54:20;;;;;;;4.20;3.88;;;24.50;56.00;;;;;;5037836;28;20214;-77
2022/08/26 02:56:46;;;;;;;3.83;3.50;;;24.50;55.90;;;;;;5037563;28;20605;-77
2022/08/26 02:59:14;;;;;;;4.10;3.67;;;24.50;56.50;;;;;;5037322;28;20207;-77
2022/08/26 03:01:41;;;;;;;4.03;3.63;;;24.50;55.90;;;;;;5037042;28;20247;-77
2022/08/26 03:04:10;;;;;;;3.80;3.47;;;24.50;56.00;;;;;;5037303;28;20616;-77
2022/08/26 03:06:37;;;;;;;3.97;3.67;;;24.50;56.00;;;;;;5036747;28;20207;-77
2022/08/26 03:09:04;;;;;;;4.20;3.80;;;24.50;56.60;;;;;;5037139;28;20199;-77
2022/08/26 03:11:32;;;;;;;4.00;3.70;;;24.50;56.00;;;;;;5019944;28;20529;-77
2022/08/26 03:13:59;;;;;;;4.18;3.88;;;24.50;56.10;;;;;;5036719;28;20239;-77
2022/08/26 03:16:26;;;;;;;4.47;4.15;;;24.40;56.00;;;;;;5036693;28;20546;-77
2022/08/26 03:18:53;;;;;;;3.90;3.60;;;24.50;56.10;;;;;;5038133;28;20207;-77
2022/08/26 03:21:22;;;;;;;4.10;3.80;;;24.40;56.10;;;;;;5020236;28;20310;-77
2022/08/26 03:23:49;;;;;;;4.05;3.75;;;24.40;56.20;;;;;;5036565;28;20565;-77
2022/08/26 03:26:16;;;;;;;4.30;3.90;;;24.40;56.10;;;;;;5036543;28;20195;-77
2022/08/26 03:31:25;;;;;;;4.28;3.90;;;24.50;56.10;;;;;;5035706;28;20219;-77
2022/08/26 03:33:52;;;;;;;4.15;3.78;;;24.50;56.10;;;;;;5036496;28;20199;-77
2022/08/26 03:36:19;;;;;;;4.50;4.10;;;24.50;56.00;;;;;;5037653;28;20218;-77
2022/08/26 03:38:47;;;;;;;4.35;4.05;;;24.50;55.90;;;;;;5038953;28;20195;-77
2022/08/26 03:41:14;;;;;;;4.25;3.95;;;24.50;55.80;;;;;;5054973;28;20230;-77
2022/08/26 03:43:41;;;;;;;4.13;3.83;;;24.60;55.80;;;;;;5036575;28;20207;-77
2022/08/26 03:46:09;;;;;;;4.30;4.00;;;24.60;55.80;;;;;;5036189;28;20195;-77
2022/08/26 03:48:36;;;;;;;4.38;3.97;;;24.60;55.70;;;;;;5036017;28;20306;-77
2022/08/26 03:51:03;;;;;;;4.20;3.90;;;24.60;55.70;;;;;;5036123;28;20634;-77
2022/08/26 03:53:30;;;;;;;4.38;3.97;;;24.60;55.70;;;;;;5036214;28;20203;-77
2022/08/26 03:55:58;;;;;;;3.97;3.70;;;24.70;55.70;;;;;;5020157;28;20199;-77
2022/08/26 03:58:25;;;;;;;4.30;3.90;;;24.70;55.70;;;;;;5054025;28;20191;-77
2022/08/26 04:00:52;;;;;;;4.30;4.00;;;24.60;55.60;;;;;;5054348;28;20211;-77
2022/08/26 04:03:56;;;;;;;4.75;4.30;;;24.60;55.60;;;;;;5036508;28;20681;-77
2022/08/26 04:06:07;;;;;;;4.32;4.03;;;24.60;55.60;;;;;;5036482;28;20199;-77
2022/08/26 04:08:34;;;;;;;4.35;3.90;;;24.60;55.60;;;;;;5036592;28;20746;-77
2022/08/26 04:11:02;;;;;;;4.20;3.90;;;24.60;55.60;;;;;;5037605;28;20222;-77
2022/08/26 04:13:29;;;;;;;5.05;4.65;;;24.60;55.60;;;;;;5036463;28;20333;-77
2022/08/26 04:15:56;;;;;;;4.50;4.10;;;24.60;55.70;;;;;;5036376;28;20199;-77
2022/08/26 04:18:26;;;;;;;4.75;4.35;;;24.60;55.70;;;;;;5036365;28;20215;-77
2022/08/26 04:20:53;;;;;;;4.22;3.88;;;24.60;55.70;;;;;;5036340;28;20219;-77
2022/08/26 04:23:21;;;;;;;4.25;3.85;;;24.60;55.70;;;;;;5021303;28;20206;-77
2022/08/26 04:25:48;;;;;;;4.25;3.95;;;24.60;55.70;;;;;;5040680;28;20195;-77
2022/08/26 04:28:16;;;;;;;4.60;4.20;;;24.60;55.80;;;;;;5057915;28;20218;-77
2022/08/26 04:30:43;;;;;;;4.50;4.20;;;24.50;55.70;;;;;;5039776;28;20226;-77
2022/08/26 04:33:12;;;;;;;3.88;3.50;;;24.50;55.70;;;;;;5039751;28;20210;-77
2022/08/26 04:35:39;;;;;;;4.05;3.75;;;24.50;55.80;;;;;;5039738;28;20203;-77
2022/08/26 04:38:06;;;;;;;4.38;4.00;;;24.50;55.80;;;;;;5040520;28;20195;-77
2022/08/26 04:40:33;;;;;;;4.18;3.88;;;24.50;55.90;;;;;;5039374;28;20257;-77
2022/08/26 04:43:01;;;;;;;3.88;3.58;;;24.50;55.90;;;;;;5039902;28;20199;-77
2022/08/26 04:45:29;;;;;;;4.38;4.03;;;24.50;55.80;;;;;;5039775;28;20201;-77
2022/08/26 04:47:56;;;;;;;4.00;3.70;;;24.50;56.40;;;;;;5040040;28;20238;-77
2022/08/26 04:50:24;;;;;;;4.30;4.00;;;24.50;55.80;;;;;;5057540;28;20715;-77
2022/08/26 04:52:51;;;;;;;4.57;4.18;;;24.50;55.80;;;;;;5039896;28;20198;-77
2022/08/26 04:55:18;;;;;;;4.32;4.03;;;24.50;55.80;;;;;;5039997;28;20290;-77
2022/08/26 04:57:45;;;;;;;4.13;3.83;;;24.50;55.80;;;;;;5039877;28;20212;-78
2022/08/26 05:00:12;;;;;;;4.05;3.75;;;24.50;55.70;;;;;;5040105;28;20223;-77
2022/08/26 05:02:42;;;;;;;4.03;3.65;;;24.50;56.30;;;;;;5023486;28;20723;-77
2022/08/26 05:05:09;;;;;;;4.45;4.15;;;24.50;55.70;;;;;;5039987;28;20548;-78
2022/08/26 05:07:36;;;;;;;4.20;3.90;;;24.50;55.70;;;;;;5022948;28;20694;-77
2022/08/26 05:10:04;;;;;;;4.80;4.40;;;24.60;55.70;;;;;;5039290;28;20710;-77
2022/08/26 05:12:32;;;;;;;6.82;5.25;;;24.60;55.10;;;;;;5039334;28;20245;-77
2022/08/26 05:14:59;;;;;;;6.43;5.40;;;24.50;54.70;;;;;;5039119;28;20662;-77
2022/08/26 05:17:26;;;;;;;5.55;5.15;;;24.30;55.00;;;;;;5057004;28;20245;-77
2022/08/26 05:19:55;;;;;;;6.00;5.40;;;24.20;55.40;;;;;;5039358;28;20210;-77
2022/08/26 05:22:22;;;;;;;5.57;5.07;;;24.00;56.00;;;;;;5038461;28;20206;-77
2022/08/26 05:24:49;;;;;;;6.00;5.40;;;23.80;56.30;;;;;;5039977;28;20193;-77
2022/08/26 05:27:16;;;;;;;5.90;5.30;;;23.70;57.10;;;;;;5051494;28;20206;-77
2022/08/26 05:29:43;;;;;;;6.13;5.53;;;23.50;57.20;;;;;;5042482;28;20265;-76
2022/08/26 05:32:10;;;;;;;6.28;5.68;;;23.60;57.30;;;;;;5038514;28;20203;-77
2022/08/26 05:34:36;;;;;;;6.07;5.55;;;23.40;57.30;;;;;;5055347;28;20205;-77
2022/08/26 05:37:05;;;;;;;6.30;5.55;;;23.40;57.60;;;;;;5055009;28;20234;-76
2022/08/26 05:39:32;;;;;;;5.60;5.10;;;23.30;57.90;;;;;;5039063;28;20199;-77
2022/08/26 05:42:00;;;;;;;5.38;4.88;;;23.20;58.20;;;;;;5038722;28;20247;-77
2022/08/26 05:44:27;;;;;;;6.90;5.90;;;23.20;58.50;;;;;;5037945;28;20207;-77
2022/08/26 05:46:54;;;;;;;5.70;5.20;;;23.10;58.60;;;;;;5039815;28;20192;-77
2022/08/26 05:49:21;;;;;;;5.30;4.88;;;23.00;59.00;;;;;;5040072;28;20219;-77
2022/08/26 05:51:48;;;;;;;6.13;5.40;;;23.00;59.20;;;;;;5040163;28;20215;-76
2022/08/26 05:54:17;;;;;;;5.45;4.88;;;23.00;59.20;;;;;;5038790;28;20290;-77
2022/08/26 05:56:45;;;;;;;5.80;5.30;;;22.90;59.40;;;;;;5037793;28;20198;-77
2022/08/26 05:59:13;;;;;;;5.03;4.53;;;23.00;58.90;;;;;;5035305;28;20207;-77
2022/08/26 06:01:39;;;;;;;5.22;4.75;;;23.10;58.40;;;;;;5038960;28;20223;-77
2022/08/26 06:04:07;;;;;;;5.38;4.95;;;23.30;58.00;;;;;;5038495;28;20200;-77
2022/08/26 06:06:35;;;;;;;4.90;4.40;;;23.50;57.50;;;;;;5038423;28;20250;-77
2022/08/26 06:09:03;;;;;;;4.68;4.38;;;23.70;57.20;;;;;;5038958;28;20694;-77
2022/08/26 06:11:32;;;;;;;5.25;4.75;;;24.00;56.70;;;;;;5038329;28;20226;-77
2022/08/26 06:14:01;;;;;;;5.07;4.60;;;24.20;56.10;;;;;;5038151;28;20210;-77
2022/08/26 06:16:29;;;;;;;4.78;4.32;;;24.50;55.70;;;;;;5054328;28;20199;-77
2022/08/26 06:18:56;;;;;;;5.10;4.70;;;24.70;55.30;;;;;;5038100;28;20681;-77
2022/08/26 06:21:24;;;;;;;4.80;4.40;;;24.80;55.00;;;;;;5038042;28;20227;-77
2022/08/26 06:26:39;;;;;;;4.95;4.50;;;24.90;54.70;;;;;;5035641;28;20203;-76
2022/08/26 06:29:06;;;;;;;6.45;4.90;;;25.00;54.70;;;;;;5053069;28;20207;-76
2022/08/26 06:31:34;;;;;;;4.90;4.50;;;25.00;54.20;;;;;;5052521;28;20219;-76
2022/08/26 06:34:01;;;;;;;5.13;4.50;;;25.10;54.30;;;;;;5053085;28;20187;-76
2022/08/26 06:36:29;;;;;;;5.65;4.53;;;25.20;54.20;;;;;;5054590;28;20211;-76
2022/08/26 06:39:01;;;;;;;4.82;4.35;;;25.20;54.00;;;;;;5053949;28;20202;-76
2022/08/26 06:41:30;;;;;;;4.93;4.53;;;25.30;53.90;;;;;;5037341;28;20215;-76
2022/08/26 06:43:59;;;;;;;4.40;4.00;;;25.40;53.70;;;;;;5053825;28;20196;-76
2022/08/26 06:46:26;;;;;;;4.93;4.50;;;25.50;53.40;;;;;;5054007;28;20203;-76
2022/08/26 06:48:53;;;;;;;4.75;4.30;;;25.60;53.10;;;;;;5053597;28;20222;-76
2022/08/26 06:51:21;;;;;;;4.40;4.00;;;25.70;53.30;;;;;;5053735;28;20220;-76
2022/08/26 06:53:49;;;;;;;4.47;4.10;;;25.90;52.50;;;;;;5037098;28;20200;-76
2022/08/26 06:56:18;;;;;;;4.75;4.35;;;26.10;52.10;;;;;;5036935;28;20542;-76
2022/08/26 06:58:46;;;;;;;4.40;4.10;;;26.20;51.70;;;;;;5053573;28;20533;-76
2022/08/26 07:01:20;;;;;;;4.40;4.00;;;26.40;51.30;;;;;;5053423;28;20249;-76
2022/08/26 07:03:48;;;;;;;4.18;3.88;;;26.60;51.00;;;;;;5053501;28;20194;-76
2022/08/26 07:06:17;;;;;;;4.05;3.75;;;26.70;50.80;;;;;;5054077;28;20253;-76
2022/08/26 07:08:44;;;;;;;4.85;4.03;;;26.90;50.40;;;;;;5037033;28;20597;-76
2022/08/26 07:11:12;;;;;;;4.68;4.28;;;27.00;50.00;;;;;;5037667;28;20587;-76
2022/08/26 07:13:39;;;;;;;4.30;4.00;;;27.10;50.30;;;;;;5036819;28;20231;-76
2022/08/26 07:16:07;;;;;;;4.30;3.80;;;27.20;49.60;;;;;;5037119;28;20668;-76
2022/08/26 07:18:36;;;;;;;4.50;4.10;;;27.20;49.40;;;;;;5054390;28;20266;-76
2022/08/26 07:21:03;;;;;;;4.30;3.90;;;27.20;49.20;;;;;;5053045;28;20253;-76
2022/08/26 07:23:30;;;;;;;4.10;3.80;;;27.30;49.20;;;;;;5003920;28;20248;-76
2022/08/26 07:25:57;;;;;;;4.72;3.83;;;27.30;49.10;;;;;;5019898;28;20202;-76
2022/08/26 07:28:24;;;;;;;4.18;3.88;;;27.40;49.00;;;;;;5052816;28;20219;-76
2022/08/26 07:30:51;;;;;;;4.75;4.32;;;27.40;48.90;;;;;;5036178;28;20215;-76
2022/08/26 07:33:17;;;;;;;4.43;3.90;;;27.40;48.80;;;;;;5036476;28;20199;-76
2022/08/26 07:35:46;;;;;;;4.40;4.00;;;27.40;48.60;;;;;;5020206;28;20203;-76
2022/08/26 07:38:13;;;;;;;4.40;4.00;;;27.50;48.60;;;;;;5053024;28;20194;-76
2022/08/26 07:40:40;;;;;;;4.32;3.97;;;27.50;48.50;;;;;;5036174;28;20293;-76
2022/08/26 07:43:08;;;;;;;4.68;4.13;;;27.60;48.50;;;;;;5052764;28;20218;-76
2022/08/26 07:45:35;;;;;;;4.18;3.88;;;27.60;48.30;;;;;;5052747;28;20198;-76
2022/08/26 07:48:02;;;;;;;4.43;4.10;;;27.70;48.20;;;;;;5035973;28;20202;-76
2022/08/26 07:50:28;;;;;;;4.68;4.28;;;27.70;48.00;;;;;;5052469;28;20226;-76
2022/08/26 07:52:57;;;;;;;4.85;3.72;;;27.70;48.10;;;;;;5036006;28;20625;-76
2022/08/26 07:55:24;;;;;;;4.18;3.88;;;27.70;48.00;;;;;;5036020;28;20209;-76
2022/08/26 07:57:51;;;;;;;3.95;3.65;;;27.70;48.00;;;;;;5035634;28;20209;-76
2022/08/26 08:00:19;;;;;;;4.25;3.95;;;27.70;48.00;;;;;;5053031;28;20218;-76
2022/08/26 08:02:46;;;;;;;4.50;4.10;;;27.70;48.10;;;;;;5055149;28;20209;-76
2022/08/26 08:05:15;;;;;;;4.47;4.10;;;27.70;48.10;;;;;;5036144;28;20194;-76
2022/08/26 08:07:43;;;;;;;4.40;4.00;;;27.70;48.20;;;;;;5052733;28;20205;-76
2022/08/26 08:10:12;;;;;;;4.55;3.88;;;27.60;48.30;;;;;;5052141;28;20232;-76
2022/08/26 08:12:39;;;;;;;4.25;3.95;;;27.50;48.50;;;;;;5035664;28;20289;-76
2022/08/26 08:15:07;;;;;;;4.10;3.80;;;27.40;48.70;;;;;;5052488;28;20665;-76
2022/08/26 08:17:34;;;;;;;4.50;4.10;;;27.30;48.90;;;;;;5036765;28;20223;-76
2022/08/26 08:20:03;;;;;;;4.10;3.80;;;27.20;49.00;;;;;;5052356;28;20214;-76
2022/08/26 08:22:31;;;;;;;4.30;4.00;;;27.20;49.30;;;;;;5035794;28;20202;-76
2022/08/26 08:24:58;;;;;;;4.32;3.80;;;27.10;49.40;;;;;;5052801;28;20194;-76
2022/08/26 08:27:26;;;;;;;4.20;3.90;;;27.10;49.60;;;;;;5052523;28;20195;-76
2022/08/26 08:29:54;;;;;;;4.72;4.32;;;27.00;49.70;;;;;;5053347;28;20207;-76
2022/08/26 08:32:21;;;;;;;4.13;3.83;;;27.00;49.80;;;;;;5052220;28;20623;-76
2022/08/26 08:34:48;;;;;;;4.55;4.15;;;26.90;49.80;;;;;;5052492;28;20202;-76
2022/08/26 08:37:15;;;;;;;4.10;3.80;;;26.90;50.00;;;;;;5035525;28;20264;-76
2022/08/26 08:39:42;;;;;;;4.38;4.00;;;26.80;50.20;;;;;;5052177;28;20190;-76
2022/08/26 08:42:33;;;;;;;3.90;3.60;;;26.70;50.30;;;;;;5035365;28;20199;-76
2022/08/26 08:45:03;;;;;;;4.22;3.92;;;26.70;50.50;;;;;;5052282;28;20195;-76
2022/08/26 08:47:32;;;;;;;4.28;3.97;;;26.70;50.50;;;;;;5035652;28;20248;-76
2022/08/26 08:50:03;;;;;;;4.05;3.75;;;26.70;50.60;;;;;;5051856;28;20223;-76
2022/08/26 08:52:31;;;;;;;4.65;3.95;;;26.70;50.70;;;;;;5052087;28;20650;-76
2022/08/26 08:54:58;;;;;;;4.43;3.97;;;26.70;50.70;;;;;;5035700;28;20600;-76
2022/08/26 08:57:27;;;;;;;3.97;3.65;;;26.80;50.50;;;;;;5051769;28;20194;-76
2022/08/26 08:59:58;;;;;;;3.85;3.55;;;26.90;50.20;;;;;;5051928;28;20242;-76
2022/08/26 09:02:29;;;;;;;3.65;3.45;;;27.10;49.80;;;;;;5051823;28;20195;-76
2022/08/26 09:05:03;;;;;;;4.35;3.95;;;27.20;49.60;;;;;;5052310;28;20195;-76
2022/08/26 09:07:33;;;;;;;4.00;3.70;;;27.20;49.60;;;;;;5051959;28;20194;-76
2022/08/26 09:10:02;;;;;;;3.85;3.55;;;27.20;49.60;;;;;;5052029;28;20693;-76
2022/08/26 09:12:31;;;;;;;4.13;3.72;;;27.20;49.60;;;;;;5055621;28;20195;-76
2022/08/26 09:15:01;;;;;;;4.22;3.83;;;27.20;49.70;;;;;;5039175;28;20221;-76
2022/08/26 09:17:34;;;;;;;4.10;3.72;;;27.20;49.70;;;;;;5039663;28;20202;-76
2022/08/26 09:20:08;;;;;;;4.40;4.03;;;27.30;49.60;;;;;;5038840;28;20672;-76
2022/08/26 09:22:36;;;;;;;3.83;3.53;;;27.40;50.00;;;;;;5039339;28;20191;-76
2022/08/26 09:25:09;;;;;;;4.15;3.75;;;27.50;49.10;;;;;;5055591;28;20195;-76
2022/08/26 09:27:39;;;;;;;4.03;3.72;;;27.60;48.70;;;;;;5056184;28;20198;-76
2022/08/26 09:30:08;;;;;;;4.10;3.80;;;27.80;48.50;;;;;;5055205;28;20222;-76
2022/08/26 09:32:36;;;;;;;4.15;3.72;;;27.80;48.10;;;;;;5055074;28;20199;-76
2022/08/26 09:35:04;;;;;;;4.43;3.90;;;28.00;47.90;;;;;;5055219;28;20198;-76
2022/08/26 09:37:40;;;;;;;4.13;3.83;;;28.00;47.50;;;;;;5038649;28;20207;-76
2022/08/26 09:40:21;;;;;;;3.63;3.33;;;28.10;47.40;;;;;;5056502;28;20264;-76
2022/08/26 09:43:09;;;;;;;3.55;3.33;;;28.20;47.20;;;;;;5056148;28;20518;-76
2022/08/26 09:45:37;;;;;;;3.67;3.40;;;28.30;47.10;;;;;;5038408;28;20207;-76
2022/08/26 09:48:05;;;;;;;3.53;3.33;;;28.40;46.90;;;;;;5054869;28;20195;-76
2022/08/26 09:50:33;;;;;;;3.58;3.28;;;28.50;46.80;;;;;;5056028;28;20232;-76
2022/08/26 09:53:06;;;;;;;3.72;3.42;;;28.50;46.60;;;;;;5055999;28;20677;-76
2022/08/26 09:55:33;;;;;;;3.40;3.17;;;28.60;46.50;;;;;;5038528;28;20205;-76
2022/08/26 09:58:02;;;;;;;3.80;3.50;;;28.60;46.30;;;;;;5038236;28;20293;-76
2022/08/26 10:00:31;;;;;;;3.50;3.30;;;28.70;46.30;;;;;;5055259;28;20214;-76
2022/08/26 10:03:00;;;;;;;3.33;3.13;;;28.70;46.20;;;;;;5038111;28;20536;-76
2022/08/26 10:05:30;;;;;;;3.97;3.42;;;28.80;46.20;;;;;;5038650;28;20651;-76
2022/08/26 10:07:57;;;;;;;3.30;3.10;;;28.80;46.10;;;;;;5040674;28;20202;-76
2022/08/26 10:10:26;;;;;;;3.60;3.30;;;28.80;46.00;;;;;;5037964;28;20566;-76
2022/08/26 10:13:01;;;;;;;3.78;3.38;;;28.80;46.00;;;;;;5054481;28;20199;-76
2022/08/26 10:15:29;;;;;;;3.50;3.20;;;28.80;46.10;;;;;;5054563;28;20277;-76
2022/08/26 10:18:02;;;;;;;3.38;3.17;;;28.80;46.00;;;;;;5037711;28;20202;-76
2022/08/26 10:20:32;;;;;;;3.58;3.28;;;28.80;46.00;;;;;;5054527;28;20701;-76
2022/08/26 10:23:00;;;;;;;3.38;3.17;;;28.80;46.00;;;;;;5054049;28;20194;-76
2022/08/26 10:25:28;;;;;;;3.67;3.38;;;28.80;46.00;;;;;;5054227;28;20261;-76
2022/08/26 10:28:01;;;;;;;3.40;3.20;;;28.80;46.00;;;;;;5055695;28;20649;-76
2022/08/26 10:30:31;;;;;;;3.60;3.30;;;28.80;46.00;;;;;;5054023;28;20250;-76
2022/08/26 10:33:02;;;;;;;3.60;3.30;;;28.80;46.00;;;;;;5054039;28;20233;-76
2022/08/26 10:35:29;;;;;;;3.50;3.20;;;28.80;46.10;;;;;;5054562;28;20209;-76
2022/08/26 10:37:58;;;;;;;3.50;3.20;;;28.80;46.10;;;;;;5055386;28;20672;-76
2022/08/26 10:40:26;;;;;;;3.60;3.30;;;28.80;46.20;;;;;;5053924;28;20249;-76
2022/08/26 10:42:55;;;;;;;3.60;3.30;;;28.70;46.10;;;;;;5055275;28;20553;-76
2022/08/26 10:45:25;;;;;;;3.60;3.35;;;28.70;46.20;;;;;;5053712;28;20194;-76
2022/08/26 10:47:55;;;;;;;3.30;3.10;;;28.60;46.20;;;;;;5037198;28;20691;-76
2022/08/26 10:50:24;;;;;;;3.40;3.20;;;28.60;46.30;;;;;;5053626;28;20681;-76
2022/08/26 10:52:57;;;;;;;3.75;3.35;;;28.60;46.30;;;;;;5020693;28;20241;-76
2022/08/26 10:55:27;;;;;;;3.50;3.20;;;28.60;46.40;;;;;;5053854;28;20637;-76
2022/08/26 10:57:56;;;;;;;3.63;3.33;;;28.60;46.50;;;;;;5054799;28;20206;-76
2022/08/26 11:03:13;;;;;;;3.35;3.13;;;28.50;46.60;;;;;;5053961;28;20276;-76
2022/08/26 11:05:41;;;;;;;3.70;3.40;;;28.50;46.70;;;;;;5037114;28;20206;-76
2022/08/26 11:08:28;;;;;;;3.67;3.38;;;28.50;46.70;;;;;;5037801;28;20229;-76
2022/08/26 11:10:56;;;;;;;3.35;3.15;;;28.50;46.80;;;;;;5036709;28;20329;-76
2022/08/26 11:13:59;;;;;;;3.08;2.88;;;28.40;46.80;;;;;;5053351;28;20210;-76
2022/08/26 11:16:36;;;;;;;3.50;3.20;;;28.40;47.00;;;;;;5047767;28;20240;-76
2022/08/26 11:19:04;;;;;;;3.28;3.08;;;28.30;47.10;;;;;;5053635;28;20190;-76
2022/08/26 11:21:51;;;;;;;3.80;3.50;;;28.30;47.20;;;;;;5053307;28;20245;-76
2022/08/26 11:24:41;;;;;;;3.30;3.10;;;28.20;47.20;;;;;;5055170;28;20542;-76
2022/08/26 11:27:11;;;;;;;4.25;3.38;;;28.20;47.40;;;;;;5055150;28;20290;-76
2022/08/26 11:29:56;;;;;;;3.13;2.92;;;28.10;47.40;;;;;;5036447;28;20681;-76
2022/08/26 11:32:24;;;;;;;3.50;3.25;;;28.10;47.60;;;;;;5036436;28;20328;-76
2022/08/26 11:34:56;;;;;;;3.50;3.20;;;28.10;47.60;;;;;;5053723;28;20244;-76
2022/08/26 11:37:29;;;;;;;3.50;3.20;;;28.10;47.80;;;;;;5053193;28;20213;-76
2022/08/26 11:39:56;;;;;;;3.17;2.97;;;28.10;47.80;;;;;;5053913;28;20186;-76
2022/08/26 11:42:29;;;;;;;3.30;3.10;;;28.10;47.80;;;;;;5054394;28;20607;-76
2022/08/26 11:44:56;;;;;;;3.22;3.03;;;28.10;47.80;;;;;;5036730;28;20199;-76
2022/08/26 11:47:28;;;;;;;3.42;3.22;;;28.00;47.70;;;;;;5036440;28;20230;-76
2022/08/26 11:50:14;;;;;;;3.50;3.20;;;28.10;47.80;;;;;;5052843;28;20249;-76
2022/08/26 11:52:50;;;;;;;3.40;3.08;;;28.00;47.80;;;;;;5036387;28;20191;-76
2022/08/26 11:55:17;;;;;;;3.30;3.10;;;28.00;47.90;;;;;;5036217;28;20195;-76
2022/08/26 11:57:45;;;;;;;3.80;3.50;;;28.00;47.90;;;;;;5053595;28;20203;-76
2022/08/26 12:00:18;;;;;;;3.33;3.10;;;28.00;48.00;;;;;;5036389;28;20221;-76
2022/08/26 12:02:45;;;;;;;3.78;3.47;;;28.00;48.00;;;;;;5053704;28;20197;-76
2022/08/26 12:05:13;;;;;;;3.28;3.08;;;28.00;48.00;;;;;;5054103;28;20202;-76
2022/08/26 12:07:42;;;;;;;3.65;3.35;;;28.00;48.70;;;;;;5004562;28;20207;-76
2022/08/26 12:10:09;;;;;;;3.13;2.90;;;28.00;48.00;;;;;;5036174;28;20234;-76
2022/08/26 12:12:37;;;;;;;3.10;2.90;;;28.00;48.00;;;;;;5055848;28;20627;-76
2022/08/26 12:15:09;;;;;;;3.78;3.47;;;28.00;47.90;;;;;;5052734;28;20636;-76
2022/08/26 12:17:37;;;;;;;3.15;2.92;;;28.10;48.00;;;;;;5036797;28;20609;-76
2022/08/26 12:20:05;;;;;;;3.38;3.10;;;28.10;47.90;;;;;;5052300;28;20249;-76
2022/08/26 12:22:34;;;;;;;3.20;3.00;;;28.10;47.80;;;;;;5036022;28;20198;-76
2022/08/26 12:25:05;;;;;;;3.33;3.03;;;28.10;47.80;;;;;;5052199;28;20209;-76
2022/08/26 12:27:34;;;;;;;3.47;3.17;;;28.10;47.70;;;;;;5052800;28;20187;-76
2022/08/26 12:30:03;;;;;;;3.50;3.17;;;28.10;47.70;;;;;;5035438;28;20233;-76
2022/08/26 12:32:31;;;;;;;3.17;2.97;;;28.10;47.70;;;;;;5052665;28;20222;-76
2022/08/26 12:34:59;;;;;;;3.42;3.13;;;28.10;47.70;;;;;;5035792;28;20191;-76
2022/08/26 12:37:26;;;;;;;3.53;3.22;;;28.10;47.70;;;;;;5052310;28;20203;-77
2022/08/26 12:39:53;;;;;;;3.78;3.47;;;28.10;47.80;;;;;;5052433;28;20194;-76
2022/08/26 12:42:40;;;;;;;3.22;2.92;;;28.10;47.80;;;;;;5035602;28;20203;-76
2022/08/26 12:45:07;;;;;;;3.35;3.15;;;28.10;48.00;;;;;;5054387;28;20638;-76
2022/08/26 12:47:37;;;;;;;3.63;3.38;;;28.10;48.00;;;;;;5057240;28;20264;-76
2022/08/26 12:50:05;;;;;;;3.67;3.38;;;28.10;48.00;;;;;;5056263;28;20218;-77
2022/08/26 12:52:32;;;;;;;3.22;2.92;;;28.10;48.10;;;;;;5056817;28;20206;-77
2022/08/26 12:55:01;;;;;;;3.40;3.20;;;28.10;48.10;;;;;;5056106;28;20725;-76
2022/08/26 12:57:31;;;;;;;3.72;3.50;;;28.00;48.10;;;;;;5055970;28;20711;-77
2022/08/26 13:00:38;;;;;;;3.63;3.33;;;28.00;48.10;;;;;;5056029;28;20198;-76
2022/08/26 13:03:05;;;;;;;3.60;3.30;;;28.00;48.10;;;;;;5035998;28;20233;-76
2022/08/26 13:05:34;;;;;;;3.13;2.88;;;28.00;48.10;;;;;;5039118;28;20198;-76